createdAt,value
2017-07-19T00:00:41.389Z,85.4
2017-07-19T00:01:48.896Z,85
2017-07-19T00:02:56.387Z,86
2017-07-19T00:04:03.888Z,86.3
2017-07-19T00:05:11.687Z,85.1
2017-07-19T00:06:19.180Z,85.6
2017-07-19T00:07:26.339Z,85
2017-07-19T00:08:33.514Z,85.5
2017-07-19T00:09:41.032Z,86
2017-07-19T00:10:48.840Z,84.2
2017-07-19T00:11:56.338Z,86.3
2017-07-19T00:13:03.519Z,86.3
2017-07-19T00:14:11.021Z,86.3
2017-07-19T00:15:18.513Z,86.3
2017-07-19T00:16:26.314Z,86.2
2017-07-19T00:17:33.490Z,86.7
2017-07-19T00:18:40.993Z,87.7
2017-07-19T00:19:48.493Z,87.4
2017-07-19T00:20:55.992Z,87
2017-07-19T00:22:03.783Z,87.5
2017-07-19T00:23:11.281Z,86.8
2017-07-19T00:24:18.778Z,88
2017-07-19T00:25:26.293Z,88.3
2017-07-19T00:26:33.798Z,88
2017-07-19T00:27:41.597Z,88.3
2017-07-19T00:28:49.093Z,88.3
2017-07-19T00:29:56.589Z,88.8
2017-07-19T00:31:04.089Z,89.2
2017-07-19T00:32:11.585Z,88.9
2017-07-19T00:33:19.390Z,89.7
2017-07-19T00:34:26.563Z,89.5
2017-07-19T00:35:34.052Z,89.9
2017-07-19T00:36:41.568Z,87.8
2017-07-19T00:37:49.060Z,88.4
2017-07-19T00:38:56.857Z,88.2
2017-07-19T00:40:04.353Z,89.6
2017-07-19T00:41:11.856Z,89.1
2017-07-19T00:42:19.355Z,89.3
2017-07-19T00:43:26.841Z,88.9
2017-07-19T00:44:34.646Z,90
2017-07-19T00:45:42.146Z,90
2017-07-19T00:46:49.657Z,89.7
2017-07-19T00:47:57.146Z,89.9
2017-07-19T00:49:04.359Z,88.2
2017-07-19T00:50:12.167Z,89.4
2017-07-19T00:51:19.667Z,89.3
2017-07-19T00:52:27.161Z,90
2017-07-19T00:53:34.694Z,88.8
2017-07-19T00:54:42.202Z,89.9
2017-07-19T00:55:49.995Z,90
2017-07-19T00:56:57.751Z,90
2017-07-19T00:58:04.910Z,89.4
2017-07-19T00:59:12.421Z,90
2017-07-19T01:00:19.587Z,90.1
2017-07-19T01:01:27.389Z,89.1
2017-07-19T01:02:34.891Z,90
2017-07-19T01:03:42.389Z,90.3
2017-07-19T01:04:49.886Z,90
2017-07-19T01:05:57.385Z,89.3
2017-07-19T01:07:05.186Z,89.6
2017-07-19T01:08:12.689Z,88.7
2017-07-19T01:09:20.193Z,90.2
2017-07-19T01:10:27.676Z,90.1
2017-07-19T01:11:35.160Z,90.1
2017-07-19T01:12:42.938Z,90
2017-07-19T01:13:50.433Z,90
2017-07-19T01:14:57.590Z,89.4
2017-07-19T01:16:05.073Z,90
2017-07-19T01:17:12.554Z,88.8
2017-07-19T01:18:20.339Z,90.3
2017-07-19T01:19:27.504Z,90.2
2017-07-19T01:20:35.000Z,90.1
2017-07-19T01:21:42.478Z,90.3
2017-07-19T01:22:49.977Z,90.3
2017-07-19T01:23:57.760Z,90.2
2017-07-19T01:25:04.921Z,90.5
2017-07-19T01:26:12.406Z,90.4
2017-07-19T01:27:19.884Z,90.4
2017-07-19T01:28:27.372Z,90.1
2017-07-19T01:29:35.166Z,90.4
2017-07-19T01:30:42.649Z,90.5
2017-07-19T01:31:50.130Z,90.5
2017-07-19T01:32:57.617Z,90.6
2017-07-19T01:34:04.770Z,90.3
2017-07-19T01:35:12.552Z,90.6
2017-07-19T01:36:20.031Z,90.3
2017-07-19T01:37:27.512Z,90.1
2017-07-19T01:38:34.989Z,90.2
2017-07-19T01:39:42.471Z,90.2
2017-07-19T01:40:50.259Z,90.6
2017-07-19T01:41:57.739Z,90.6
2017-07-19T01:43:04.891Z,90.5
2017-07-19T01:44:12.375Z,90.7
2017-07-19T01:45:19.524Z,90.7
2017-07-19T01:46:27.311Z,90.8
2017-07-19T01:47:34.794Z,90.5
2017-07-19T01:48:42.275Z,90.3
2017-07-19T01:49:49.758Z,90.6
2017-07-19T01:50:57.236Z,90.7
2017-07-19T01:52:05.021Z,90.8
2017-07-19T01:53:12.539Z,90.9
2017-07-19T01:54:20.025Z,90.9
2017-07-19T01:55:27.183Z,90.8
2017-07-19T01:56:34.336Z,90.5
2017-07-19T01:57:42.114Z,90.4
2017-07-19T01:58:49.589Z,90.6
2017-07-19T01:59:57.080Z,90.3
2017-07-19T02:01:04.556Z,90.4
2017-07-19T02:02:12.037Z,90.7
2017-07-19T02:03:19.482Z,90.3
2017-07-19T02:04:26.963Z,90.2
2017-07-19T02:05:34.444Z,90.9
2017-07-19T02:06:41.930Z,91.2
2017-07-19T02:07:49.075Z,91.1
2017-07-19T02:08:56.524Z,90.8
2017-07-19T02:10:03.997Z,91.2
2017-07-19T02:11:11.492Z,91
2017-07-19T02:12:18.976Z,91
2017-07-19T02:13:26.457Z,91.3
2017-07-19T02:14:34.246Z,90.5
2017-07-19T02:15:41.726Z,91.1
2017-07-19T02:16:49.208Z,91.1
2017-07-19T02:17:56.691Z,91.1
2017-07-19T02:19:04.166Z,91
2017-07-19T02:20:11.953Z,90.8
2017-07-19T02:21:19.434Z,91.2
2017-07-19T02:22:26.919Z,91.3
2017-07-19T02:23:34.397Z,91.3
2017-07-19T02:24:41.882Z,91.1
2017-07-19T02:25:49.664Z,91.2
2017-07-19T02:26:57.149Z,91.3
2017-07-19T02:28:04.637Z,91.3
2017-07-19T02:29:11.793Z,91.3
2017-07-19T02:30:19.272Z,91.3
2017-07-19T02:31:26.724Z,91.3
2017-07-19T02:32:33.876Z,91.3
2017-07-19T02:33:41.362Z,91.2
2017-07-19T02:34:48.516Z,91.3
2017-07-19T02:35:55.990Z,91.1
2017-07-19T02:37:03.456Z,91.2
2017-07-19T02:38:10.617Z,91.2
2017-07-19T02:39:18.110Z,91.1
2017-07-19T02:40:25.603Z,91
2017-07-19T02:41:33.092Z,91.1
2017-07-19T02:42:40.868Z,90.9
2017-07-19T02:43:48.017Z,91
2017-07-19T02:44:55.172Z,91.1
2017-07-19T02:46:02.330Z,91
2017-07-19T02:47:09.809Z,91
2017-07-19T02:48:17.621Z,91
2017-07-19T02:49:25.110Z,91.1
2017-07-19T02:50:32.588Z,91.3
2017-07-19T02:51:39.409Z,91.2
2017-07-19T02:52:46.883Z,90.6
2017-07-19T02:53:54.670Z,90.8
2017-07-19T02:55:02.158Z,91.2
2017-07-19T02:56:09.667Z,90.8
2017-07-19T02:57:17.147Z,91.2
2017-07-19T02:58:24.637Z,90.7
2017-07-19T02:59:32.416Z,91.2
2017-07-19T03:00:39.895Z,91
2017-07-19T03:01:47.380Z,91.2
2017-07-19T03:02:54.863Z,91.1
2017-07-19T03:04:02.346Z,91.4
2017-07-19T03:05:10.130Z,91.2
2017-07-19T03:06:17.614Z,91.4
2017-07-19T03:07:25.090Z,91.8
2017-07-19T03:08:32.244Z,91.2
2017-07-19T03:09:39.723Z,91.4
2017-07-19T03:10:47.511Z,91.8
2017-07-19T03:11:54.676Z,91.7
2017-07-19T03:13:02.151Z,91.8
2017-07-19T03:14:09.631Z,91.8
2017-07-19T03:15:16.787Z,91.8
2017-07-19T03:16:24.253Z,91.2
2017-07-19T03:17:31.734Z,90.9
2017-07-19T03:18:39.223Z,91.1
2017-07-19T03:19:46.720Z,91.3
2017-07-19T03:20:53.545Z,91.7
2017-07-19T03:22:01.322Z,91.5
2017-07-19T03:23:08.807Z,91.8
2017-07-19T03:24:16.286Z,91.7
2017-07-19T03:25:23.767Z,91
2017-07-19T03:26:30.922Z,91.4
2017-07-19T03:27:38.391Z,91.7
2017-07-19T03:28:45.867Z,92.2
2017-07-19T03:29:53.346Z,92.1
2017-07-19T03:31:00.827Z,92.3
2017-07-19T03:32:08.305Z,91.9
2017-07-19T03:33:16.087Z,91.8
2017-07-19T03:34:22.922Z,91.9
2017-07-19T03:35:30.402Z,92
2017-07-19T03:36:37.891Z,91.3
2017-07-19T03:37:45.372Z,91.9
2017-07-19T03:38:52.526Z,92.1
2017-07-19T03:40:00.013Z,91.8
2017-07-19T03:41:07.497Z,92.1
2017-07-19T03:42:14.978Z,92.2
2017-07-19T03:43:22.462Z,91.9
2017-07-19T03:44:30.249Z,92
2017-07-19T03:45:37.727Z,92.6
2017-07-19T03:46:44.883Z,92.7
2017-07-19T03:47:52.372Z,92.7
2017-07-19T03:48:59.851Z,92.5
2017-07-19T03:50:07.299Z,92.6
2017-07-19T03:51:14.816Z,92.5
2017-07-19T03:52:22.297Z,92.4
2017-07-19T03:53:29.776Z,92.4
2017-07-19T03:54:36.926Z,92.6
2017-07-19T03:55:44.708Z,92.6
2017-07-19T03:56:52.187Z,92
2017-07-19T03:57:59.667Z,92.6
2017-07-19T03:59:07.144Z,92.2
2017-07-19T04:00:14.626Z,92.6
2017-07-19T04:01:22.103Z,92.3
2017-07-19T04:02:29.584Z,92.4
2017-07-19T04:03:37.072Z,92.4
2017-07-19T04:04:44.213Z,92.4
2017-07-19T04:05:51.692Z,92.1
2017-07-19T04:06:59.473Z,92
2017-07-19T04:08:06.959Z,92.1
2017-07-19T04:09:14.463Z,91.7
2017-07-19T04:10:21.947Z,92.2
2017-07-19T04:11:29.749Z,92.3
2017-07-19T04:12:37.228Z,92.2
2017-07-19T04:13:44.709Z,92.3
2017-07-19T04:14:51.872Z,92.3
2017-07-19T04:15:59.034Z,92.4
2017-07-19T04:17:07.043Z,92.1
2017-07-19T04:18:14.527Z,91.9
2017-07-19T04:19:22.005Z,91.9
2017-07-19T04:20:29.500Z,92.3
2017-07-19T04:21:36.643Z,91.8
2017-07-19T04:22:44.449Z,92.3
2017-07-19T04:23:51.927Z,92.2
2017-07-19T04:24:59.076Z,92.1
2017-07-19T04:26:06.554Z,92
2017-07-19T04:27:14.035Z,92.2
2017-07-19T04:28:21.514Z,92.6
2017-07-19T04:29:28.996Z,92.4
2017-07-19T04:30:36.484Z,92.6
2017-07-19T04:31:43.961Z,92.7
2017-07-19T04:32:51.450Z,92.7
2017-07-19T04:33:58.898Z,92.4
2017-07-19T04:35:06.378Z,92.6
2017-07-19T04:36:13.876Z,92.6
2017-07-19T04:37:21.354Z,92.6
2017-07-19T04:38:28.834Z,92.5
2017-07-19T04:39:36.629Z,92.3
2017-07-19T04:40:43.784Z,92.2
2017-07-19T04:41:51.266Z,92.2
2017-07-19T04:42:58.419Z,91.9
2017-07-19T04:44:05.893Z,91.9
2017-07-19T04:45:13.354Z,91.9
2017-07-19T04:46:20.831Z,91.7
2017-07-19T04:47:28.324Z,91.9
2017-07-19T04:48:35.803Z,91.9
2017-07-19T04:49:43.286Z,91.9
2017-07-19T04:50:51.068Z,92
2017-07-19T04:51:58.544Z,92
2017-07-19T04:53:05.704Z,92.3
2017-07-19T04:54:13.092Z,91.9
2017-07-19T04:55:20.579Z,92.4
2017-07-19T04:56:28.359Z,92.3
2017-07-19T04:57:35.836Z,92.3
2017-07-19T04:58:43.315Z,92.4
2017-07-19T04:59:50.803Z,92.6
2017-07-19T05:00:58.282Z,92.4
2017-07-19T05:02:06.073Z,92.4
2017-07-19T05:03:13.555Z,92.6
2017-07-19T05:04:21.050Z,92.8
2017-07-19T05:05:28.206Z,92.4
2017-07-19T05:06:35.926Z,92.5
2017-07-19T05:07:43.432Z,92.2
2017-07-19T05:08:50.905Z,92
2017-07-19T05:09:58.066Z,92.4
2017-07-19T05:11:05.551Z,92.2
2017-07-19T05:12:13.039Z,92.3
2017-07-19T05:13:20.871Z,91.9
2017-07-19T05:14:28.017Z,92
2017-07-19T05:15:35.495Z,92.1
2017-07-19T05:16:42.644Z,92.1
2017-07-19T05:17:50.121Z,92.3
2017-07-19T05:18:57.952Z,92.1
2017-07-19T05:20:05.429Z,92.1
2017-07-19T05:21:12.583Z,92.1
2017-07-19T05:22:20.067Z,92.1
2017-07-19T05:23:27.214Z,92.1
2017-07-19T05:24:35.001Z,92.2
2017-07-19T05:25:42.481Z,92.1
2017-07-19T05:26:49.955Z,92.1
2017-07-19T05:27:57.446Z,92.2
2017-07-19T05:29:04.587Z,92.2
2017-07-19T05:30:12.371Z,92.1
2017-07-19T05:31:19.851Z,91.8
2017-07-19T05:32:27.330Z,91.8
2017-07-19T05:33:34.815Z,91.8
2017-07-19T05:34:42.290Z,91.6
2017-07-19T05:35:49.791Z,91.3
2017-07-19T05:36:56.939Z,91.5
2017-07-19T05:38:04.089Z,91.4
2017-07-19T05:39:11.571Z,91.2
2017-07-19T05:40:19.046Z,90.6
2017-07-19T05:41:26.875Z,91
2017-07-19T05:42:34.378Z,90.5
2017-07-19T05:43:41.857Z,90.4
2017-07-19T05:44:49.334Z,90.3
2017-07-19T05:45:56.813Z,90.1
2017-07-19T05:47:04.650Z,89.3
2017-07-19T05:48:11.818Z,89.2
2017-07-19T05:49:19.300Z,89.3
2017-07-19T05:50:26.779Z,87.4
2017-07-19T05:51:34.259Z,87.5
2017-07-19T05:52:42.094Z,87.9
2017-07-19T05:53:49.570Z,88.3
2017-07-19T05:54:57.052Z,88.1
2017-07-19T05:56:04.532Z,87.8
2017-07-19T05:57:12.030Z,87.9
2017-07-19T05:58:19.875Z,86.9
2017-07-19T05:59:27.354Z,86.3
2017-07-19T06:00:34.829Z,85.8
2017-07-19T06:01:42.310Z,85.6
2017-07-19T06:02:49.787Z,84.4
2017-07-19T06:03:57.573Z,84.5
2017-07-19T06:05:05.063Z,83.3
2017-07-19T06:06:12.549Z,85.2
2017-07-19T06:07:20.032Z,83.3
2017-07-19T06:08:27.512Z,83.2
2017-07-19T06:09:35.294Z,82
2017-07-19T06:10:42.769Z,81.5
2017-07-19T06:11:49.927Z,81.4
2017-07-19T06:12:57.408Z,81.4
2017-07-19T06:14:04.889Z,82.3
2017-07-19T06:15:12.675Z,80
2017-07-19T06:16:20.176Z,80.6
2017-07-19T06:17:27.652Z,80.8
2017-07-19T06:18:34.810Z,79.7
2017-07-19T06:19:41.960Z,78.7
2017-07-19T06:20:49.462Z,79.4
2017-07-19T06:21:56.950Z,80.5
2017-07-19T06:23:04.103Z,79.2
2017-07-19T06:24:11.589Z,79.9
2017-07-19T06:25:19.069Z,79.5
2017-07-19T06:26:26.904Z,76.7
2017-07-19T06:27:34.392Z,75.5
2017-07-19T06:28:41.873Z,77.8
2017-07-19T06:29:49.362Z,76.5
2017-07-19T06:30:56.856Z,77.5
2017-07-19T06:32:04.352Z,76
2017-07-19T06:33:11.842Z,77
2017-07-19T06:34:19.326Z,76.1
2017-07-19T06:35:26.480Z,76.1
2017-07-19T06:36:33.972Z,77
2017-07-19T06:37:41.812Z,75.7
2017-07-19T06:38:48.979Z,73.9
2017-07-19T06:39:56.470Z,74
2017-07-19T06:41:03.957Z,75.2
2017-07-19T06:42:11.449Z,76
2017-07-19T06:43:19.231Z,73.7
2017-07-19T06:44:26.381Z,73.2
2017-07-19T06:45:33.864Z,73.5
2017-07-19T06:46:41.355Z,74
2017-07-19T06:47:48.178Z,74.4
2017-07-19T06:48:55.640Z,73.5
2017-07-19T06:50:03.130Z,73.4
2017-07-19T06:51:10.616Z,72.3
2017-07-19T06:52:18.101Z,73.4
2017-07-19T06:53:25.588Z,71.8
2017-07-19T06:54:33.101Z,71.2
2017-07-19T06:55:40.593Z,72.4
2017-07-19T06:56:47.747Z,72
2017-07-19T06:57:55.251Z,70.6
2017-07-19T06:59:02.731Z,71.3
2017-07-19T07:00:10.565Z,70.1
2017-07-19T07:01:18.053Z,71.1
2017-07-19T07:02:24.898Z,71
2017-07-19T07:03:32.375Z,71
2017-07-19T07:04:39.873Z,72.6
2017-07-19T07:05:47.377Z,73.8
2017-07-19T07:06:54.867Z,71.2
2017-07-19T07:08:02.356Z,71.3
2017-07-19T07:09:09.518Z,70.5
2017-07-19T07:10:17.006Z,72.8
2017-07-19T07:11:24.842Z,73
2017-07-19T07:12:31.993Z,69.9
2017-07-19T07:13:39.485Z,71.4
2017-07-19T07:14:46.974Z,69.2
2017-07-19T07:15:54.462Z,69.3
2017-07-19T07:17:01.944Z,68.7
2017-07-19T07:18:09.427Z,68.1
2017-07-19T07:19:17.214Z,67.9
2017-07-19T07:20:24.702Z,69.7
2017-07-19T07:21:32.197Z,67.2
2017-07-19T07:22:39.682Z,67
2017-07-19T07:23:47.477Z,67.9
2017-07-19T07:24:54.961Z,66.6
2017-07-19T07:26:02.465Z,66
2017-07-19T07:27:09.951Z,67.1
2017-07-19T07:28:17.115Z,67.2
2017-07-19T07:29:24.575Z,66.7
2017-07-19T07:30:32.063Z,66.9
2017-07-19T07:31:39.544Z,66.1
2017-07-19T07:32:47.036Z,66
2017-07-19T07:33:54.529Z,66.3
2017-07-19T07:35:02.318Z,67.2
2017-07-19T07:36:09.804Z,65.7
2017-07-19T07:37:16.964Z,66.8
2017-07-19T07:38:24.455Z,67.4
2017-07-19T07:39:31.949Z,65.5
2017-07-19T07:40:39.434Z,65.6
2017-07-19T07:41:46.919Z,66
2017-07-19T07:42:54.408Z,66.5
2017-07-19T07:44:01.895Z,65.2
2017-07-19T07:45:09.384Z,64.6
2017-07-19T07:46:16.884Z,65.3
2017-07-19T07:47:24.376Z,65
2017-07-19T07:48:31.881Z,65
2017-07-19T07:49:39.373Z,63.5
2017-07-19T07:50:46.857Z,64.6
2017-07-19T07:51:54.701Z,62.8
2017-07-19T07:53:02.190Z,62.8
2017-07-19T07:54:09.676Z,62.9
2017-07-19T07:55:16.845Z,60.1
2017-07-19T07:56:24.325Z,62.5
2017-07-19T07:57:32.165Z,64.3
2017-07-19T07:58:39.650Z,63.3
2017-07-19T07:59:46.812Z,58
2017-07-19T08:00:53.973Z,60.2
2017-07-19T08:02:01.466Z,61.3
2017-07-19T08:03:08.980Z,60.9
2017-07-19T08:04:16.470Z,62.2
2017-07-19T08:05:23.952Z,63.1
2017-07-19T08:06:31.104Z,63.6
2017-07-19T08:07:38.598Z,65.4
2017-07-19T08:08:46.436Z,62.4
2017-07-19T08:09:53.947Z,64.4
2017-07-19T08:11:01.438Z,60.9
2017-07-19T08:12:08.919Z,60.6
2017-07-19T08:13:16.411Z,61.5
2017-07-19T08:14:24.280Z,63.4
2017-07-19T08:15:31.763Z,60
2017-07-19T08:16:39.250Z,61.9
2017-07-19T08:17:46.747Z,60.3
2017-07-19T08:18:54.234Z,58.4
2017-07-19T08:20:02.069Z,60.3
2017-07-19T08:21:09.553Z,60.1
2017-07-19T08:22:17.049Z,59
2017-07-19T08:23:24.545Z,56.9
2017-07-19T08:24:32.034Z,58.5
2017-07-19T08:25:39.493Z,55.3
2017-07-19T08:26:46.981Z,56.5
2017-07-19T08:27:54.477Z,58.5
2017-07-19T08:29:01.970Z,58.8
2017-07-19T08:30:09.471Z,54.6
2017-07-19T08:31:17.266Z,57.2
2017-07-19T08:32:24.777Z,54
2017-07-19T08:33:32.268Z,53.9
2017-07-19T08:34:39.763Z,55.9
2017-07-19T08:35:47.251Z,56
2017-07-19T08:36:55.088Z,56.7
2017-07-19T08:38:02.591Z,57.6
2017-07-19T08:39:10.088Z,59.5
2017-07-19T08:40:17.577Z,55.4
2017-07-19T08:41:25.072Z,56.9
2017-07-19T08:42:32.935Z,59.3
2017-07-19T08:43:40.425Z,58.9
2017-07-19T08:44:47.581Z,58.7
2017-07-19T08:45:55.070Z,54.9
2017-07-19T08:47:02.557Z,54.8
2017-07-19T08:48:10.046Z,55.8
2017-07-19T08:49:17.547Z,53.8
2017-07-19T08:50:24.702Z,57.2
2017-07-19T08:51:32.190Z,55.2
2017-07-19T08:52:39.973Z,53.9
2017-07-19T08:53:47.467Z,54
2017-07-19T08:54:54.962Z,54
2017-07-19T08:56:02.449Z,54.4
2017-07-19T08:57:09.619Z,56
2017-07-19T08:58:17.418Z,53.1
2017-07-19T08:59:24.902Z,51.4
2017-07-19T09:00:32.400Z,53
2017-07-19T09:01:39.889Z,53.7
2017-07-19T09:02:47.390Z,53.8
2017-07-19T09:03:55.175Z,51.4
2017-07-19T09:05:02.672Z,52.3
2017-07-19T09:06:09.838Z,55.6
2017-07-19T09:07:17.000Z,51.7
2017-07-19T09:08:24.485Z,53.8
2017-07-19T09:09:31.990Z,50.5
2017-07-19T09:10:39.147Z,50.1
2017-07-19T09:11:46.640Z,49
2017-07-19T09:12:54.135Z,51.1
2017-07-19T09:14:01.945Z,52
2017-07-19T09:15:08.783Z,52.8
2017-07-19T09:16:16.282Z,51
2017-07-19T09:17:23.771Z,49.9
2017-07-19T09:18:30.930Z,52.3
2017-07-19T09:19:38.717Z,51.4
2017-07-19T09:20:46.214Z,50
2017-07-19T09:21:53.720Z,51
2017-07-19T09:23:01.219Z,50.8
2017-07-19T09:24:08.709Z,52.3
2017-07-19T09:25:16.501Z,50.3
2017-07-19T09:26:23.994Z,49.9
2017-07-19T09:27:31.156Z,50.4
2017-07-19T09:28:38.641Z,51.3
2017-07-19T09:29:46.133Z,48.3
2017-07-19T09:30:53.922Z,49.8
2017-07-19T09:32:01.418Z,49.9
2017-07-19T09:33:08.908Z,50.3
2017-07-19T09:34:16.402Z,50
2017-07-19T09:35:23.567Z,51.8
2017-07-19T09:36:31.065Z,47.8
2017-07-19T09:37:38.555Z,48.9
2017-07-19T09:39:52.866Z,49.4
2017-07-19T09:41:00.350Z,51.8
2017-07-19T09:42:08.144Z,48.3
2017-07-19T09:43:15.629Z,52
2017-07-19T09:44:23.118Z,50.2
2017-07-19T09:45:30.610Z,50.3
2017-07-19T09:46:38.101Z,50.9
2017-07-19T09:47:45.572Z,52.5
2017-07-19T09:48:53.065Z,51
2017-07-19T09:50:00.556Z,50.6
2017-07-19T09:51:08.049Z,52.8
2017-07-19T09:52:15.541Z,51.4
2017-07-19T09:53:23.029Z,49
2017-07-19T09:54:30.522Z,51.8
2017-07-19T09:55:38.019Z,51.8
2017-07-19T09:56:45.512Z,48.3
2017-07-19T09:57:53.009Z,47.9
2017-07-19T09:59:00.805Z,48
2017-07-19T10:00:08.292Z,46.9
2017-07-19T10:01:15.792Z,47
2017-07-19T10:02:23.287Z,48.8
2017-07-19T10:03:30.787Z,49.9
2017-07-19T10:04:38.579Z,50
2017-07-19T10:06:53.203Z,49.8
2017-07-19T10:08:00.697Z,52.7
2017-07-19T10:09:08.187Z,49.5
2017-07-19T10:10:15.986Z,47.7
2017-07-19T10:11:23.488Z,49.8
2017-07-19T10:12:30.979Z,51.4
2017-07-19T10:13:38.473Z,48
2017-07-19T10:14:45.969Z,49.1
2017-07-19T10:15:53.472Z,48.1
2017-07-19T10:17:00.968Z,49.2
2017-07-19T10:18:08.459Z,48
2017-07-19T10:19:15.617Z,50.1
2017-07-19T10:20:23.109Z,51.5
2017-07-19T10:21:30.900Z,46.4
2017-07-19T10:22:38.395Z,48.2
2017-07-19T10:23:45.556Z,48.2
2017-07-19T10:24:53.077Z,47
2017-07-19T10:26:00.567Z,50.5
2017-07-19T10:27:08.356Z,50.8
2017-07-19T10:28:15.517Z,48.4
2017-07-19T10:29:23.010Z,49.4
2017-07-19T10:30:30.504Z,45.3
2017-07-19T10:31:38.008Z,46.5
2017-07-19T10:32:45.172Z,44.9
2017-07-19T10:33:52.337Z,45.4
2017-07-19T10:34:59.833Z,43
2017-07-19T10:36:06.999Z,44.4
2017-07-19T10:37:14.488Z,44.6
2017-07-19T10:38:22.284Z,42.8
2017-07-19T10:39:29.439Z,43.9
2017-07-19T10:40:36.924Z,46.1
2017-07-19T10:41:44.416Z,43.5
2017-07-19T10:42:51.913Z,44.5
2017-07-19T10:43:59.705Z,48.2
2017-07-19T10:45:06.881Z,46.5
2017-07-19T10:46:14.380Z,44.8
2017-07-19T10:47:21.876Z,44.7
2017-07-19T10:48:29.372Z,44.4
2017-07-19T10:49:37.168Z,44.7
2017-07-19T10:50:44.668Z,44.2
2017-07-19T10:51:52.165Z,45.4
2017-07-19T10:52:59.654Z,43.1
2017-07-19T10:54:07.154Z,45
2017-07-19T10:55:14.319Z,45.7
2017-07-19T10:56:21.817Z,42.7
2017-07-19T10:57:29.308Z,44.2
2017-07-19T10:58:36.810Z,43.2
2017-07-19T10:59:44.307Z,44.6
2017-07-19T11:00:52.109Z,44.9
2017-07-19T11:01:58.953Z,43.1
2017-07-19T11:03:06.119Z,43.4
2017-07-19T11:04:13.616Z,46
2017-07-19T11:05:21.120Z,44.3
2017-07-19T11:06:28.914Z,44.8
2017-07-19T11:07:36.402Z,44
2017-07-19T11:08:43.564Z,43.4
2017-07-19T11:09:51.060Z,44.8
2017-07-19T11:10:58.546Z,43.4
2017-07-19T11:12:06.001Z,45.3
2017-07-19T11:13:13.497Z,45.4
2017-07-19T11:14:20.990Z,44.1
2017-07-19T11:15:27.832Z,45.4
2017-07-19T11:16:35.320Z,46.3
2017-07-19T11:17:43.115Z,47.7
2017-07-19T11:18:50.634Z,42.9
2017-07-19T11:19:57.804Z,42.9
2017-07-19T11:21:05.297Z,42.4
2017-07-19T11:22:12.799Z,43.2
2017-07-19T11:23:20.594Z,43.3
2017-07-19T11:24:28.085Z,43
2017-07-19T11:25:35.584Z,43.3
2017-07-19T11:26:42.748Z,46.1
2017-07-19T11:27:50.238Z,40.1
2017-07-19T11:28:58.036Z,41.2
2017-07-19T11:30:05.525Z,43.7
2017-07-19T11:31:13.021Z,41.7
2017-07-19T11:32:20.508Z,40.9
2017-07-19T11:33:27.999Z,44
2017-07-19T11:34:35.493Z,44.6
2017-07-19T11:35:42.982Z,43
2017-07-19T11:36:50.485Z,43.5
2017-07-19T11:37:57.980Z,40.9
2017-07-19T11:39:05.472Z,42.1
2017-07-19T11:40:12.935Z,41.3
2017-07-19T11:41:20.103Z,41.1
2017-07-19T11:42:27.593Z,41.1
2017-07-19T11:43:35.094Z,41.4
2017-07-19T11:44:42.587Z,42.7
2017-07-19T11:45:50.389Z,41.3
2017-07-19T11:46:57.876Z,42.5
2017-07-19T11:48:05.374Z,42.8
2017-07-19T11:49:12.538Z,41.8
2017-07-19T11:50:19.695Z,42.5
2017-07-19T11:51:27.496Z,40.5
2017-07-19T11:52:34.998Z,46
2017-07-19T11:53:42.494Z,40.4
2017-07-19T11:54:49.982Z,39.8
2017-07-19T11:55:57.152Z,42
2017-07-19T11:57:04.649Z,42.3
2017-07-19T11:58:12.144Z,41.1
2017-07-19T11:59:19.638Z,42.5
2017-07-19T12:00:27.136Z,41.2
2017-07-19T12:01:34.938Z,42.7
2017-07-19T12:02:42.430Z,42.6
2017-07-19T12:03:49.927Z,43.6
2017-07-19T12:04:57.427Z,42.5
2017-07-19T12:06:04.922Z,43.6
2017-07-19T12:07:12.718Z,42
2017-07-19T12:08:19.877Z,41.4
2017-07-19T12:09:27.389Z,41.6
2017-07-19T12:10:34.874Z,42
2017-07-19T12:11:42.053Z,46.2
2017-07-19T12:12:49.513Z,40.9
2017-07-19T12:13:57.011Z,39.6
2017-07-19T12:15:04.174Z,40.5
2017-07-19T12:16:11.347Z,40
2017-07-19T12:17:18.852Z,40.1
2017-07-19T12:18:26.646Z,41.5
2017-07-19T12:19:34.138Z,41.6
2017-07-19T12:20:41.307Z,41.1
2017-07-19T12:21:48.801Z,38.7
2017-07-19T12:22:55.986Z,39.6
2017-07-19T12:24:03.479Z,38.6
2017-07-19T12:25:10.991Z,40.2
2017-07-19T12:26:18.482Z,38.7
2017-07-19T12:27:25.311Z,39.4
2017-07-19T12:28:32.802Z,41.5
2017-07-19T12:29:40.595Z,38.3
2017-07-19T12:30:48.098Z,39.5
2017-07-19T12:31:55.592Z,40.9
2017-07-19T12:33:03.100Z,39.1
2017-07-19T12:34:10.602Z,38.6
2017-07-19T12:35:18.449Z,40.3
2017-07-19T12:36:25.950Z,41.3
2017-07-19T12:37:33.446Z,42.7
2017-07-19T12:38:40.946Z,39.4
2017-07-19T12:39:48.107Z,42.6
2017-07-19T12:40:55.620Z,36.7
2017-07-19T12:42:03.116Z,37.2
2017-07-19T12:43:10.615Z,38.5
2017-07-19T12:45:24.914Z,37.6
2017-07-19T12:46:32.767Z,38.7
2017-07-19T12:47:40.259Z,38.9
2017-07-19T12:48:47.426Z,39.4
2017-07-19T12:49:54.938Z,37.9
2017-07-19T12:51:02.438Z,41.7
2017-07-19T12:52:09.922Z,39
2017-07-19T12:53:17.089Z,38.3
2017-07-19T12:54:24.250Z,38.5
2017-07-19T12:55:31.748Z,38.3
2017-07-19T12:56:39.245Z,39.4
2017-07-19T12:57:47.093Z,40.6
2017-07-19T12:58:54.611Z,41.5
2017-07-19T13:00:01.768Z,39.3
2017-07-19T13:01:09.271Z,36.4
2017-07-19T13:02:16.689Z,36.5
2017-07-19T13:03:24.532Z,37.6
2017-07-19T13:04:32.030Z,38
2017-07-19T13:05:39.529Z,35.9
2017-07-19T13:06:47.023Z,37.8
2017-07-19T13:07:54.519Z,38.7
2017-07-19T13:09:02.045Z,37.6
2017-07-19T13:10:09.542Z,38
2017-07-19T13:11:16.708Z,34.2
2017-07-19T13:12:24.205Z,37.1
2017-07-19T13:13:31.699Z,36.2
2017-07-19T13:14:39.498Z,37.2
2017-07-19T13:15:46.653Z,38.7
2017-07-19T13:16:54.154Z,35.8
2017-07-19T13:18:01.650Z,36.3
2017-07-19T13:19:09.145Z,39.1
2017-07-19T13:20:17.001Z,36.7
2017-07-19T13:21:24.163Z,34.9
2017-07-19T13:22:31.677Z,36.9
2017-07-19T13:23:39.172Z,38.1
2017-07-19T13:24:46.349Z,35.4
2017-07-19T13:25:54.194Z,38.1
2017-07-19T13:27:01.689Z,37.5
2017-07-19T13:28:09.191Z,36
2017-07-19T13:29:16.684Z,36.5
2017-07-19T13:30:24.178Z,37.4
2017-07-19T13:31:31.700Z,35
2017-07-19T13:32:39.203Z,37.2
2017-07-19T13:33:46.688Z,37.4
2017-07-19T13:34:54.184Z,36.7
2017-07-19T13:36:01.683Z,35.8
2017-07-19T13:37:09.200Z,38
2017-07-19T13:38:16.699Z,36.8
2017-07-19T13:39:23.864Z,35.3
2017-07-19T13:40:31.362Z,38.1
2017-07-19T13:41:38.887Z,37
2017-07-19T13:42:46.695Z,38
2017-07-19T13:43:54.193Z,35
2017-07-19T13:45:01.690Z,37.2
2017-07-19T13:46:09.186Z,35.5
2017-07-19T13:47:16.677Z,38.5
2017-07-19T13:48:24.526Z,34
2017-07-19T13:49:32.023Z,33.7
2017-07-19T13:50:39.520Z,36.6
2017-07-19T13:51:47.018Z,37.2
2017-07-19T13:52:54.512Z,37.7
2017-07-19T13:54:02.359Z,36
2017-07-19T13:55:09.860Z,37.1
2017-07-19T13:56:17.361Z,36.7
2017-07-19T13:57:24.857Z,38
2017-07-19T13:58:32.033Z,37.7
2017-07-19T13:59:39.888Z,36.6
2017-07-19T14:00:47.393Z,35.6
2017-07-19T14:01:54.557Z,36.9
2017-07-19T14:03:01.719Z,37.3
2017-07-19T14:04:09.218Z,37.5
2017-07-19T14:05:17.070Z,37
2017-07-19T14:06:24.584Z,38.8
2017-07-19T14:07:32.094Z,38.6
2017-07-19T14:08:39.588Z,37.3
2017-07-19T14:09:47.088Z,36.1
2017-07-19T14:10:54.884Z,38.7
2017-07-19T14:12:02.047Z,35.6
2017-07-19T14:13:09.548Z,36.5
2017-07-19T14:14:17.041Z,37.6
2017-07-19T14:15:24.538Z,40.7
2017-07-19T14:16:32.062Z,35.4
2017-07-19T14:17:39.557Z,36.4
2017-07-19T14:18:47.049Z,35.2
2017-07-19T14:19:54.565Z,36.1
2017-07-19T14:21:02.062Z,35.6
2017-07-19T14:22:09.863Z,40.1
2017-07-19T14:23:17.355Z,36
2017-07-19T14:24:24.194Z,34.7
2017-07-19T14:25:31.688Z,35
2017-07-19T14:26:38.857Z,34.2
2017-07-19T14:27:46.708Z,34
2017-07-19T14:28:54.212Z,37.3
2017-07-19T14:30:01.403Z,35.6
2017-07-19T14:31:08.899Z,34.7
2017-07-19T14:32:16.399Z,33.6
2017-07-19T14:33:24.246Z,35.3
2017-07-19T14:34:31.740Z,34.5
2017-07-19T14:35:39.233Z,34.3
2017-07-19T14:36:46.735Z,35.6
2017-07-19T14:37:53.910Z,34.5
2017-07-19T14:39:01.760Z,35.7
2017-07-19T14:40:08.943Z,37.6
2017-07-19T14:41:16.459Z,35.6
2017-07-19T14:42:23.957Z,33.9
2017-07-19T14:43:31.145Z,34.9
2017-07-19T14:44:38.991Z,35
2017-07-19T14:45:46.491Z,34
2017-07-19T14:46:53.987Z,34.2
2017-07-19T14:48:01.487Z,33.7
2017-07-19T14:49:08.660Z,34
2017-07-19T14:50:16.508Z,34.9
2017-07-19T14:51:23.999Z,33.2
2017-07-19T14:52:31.508Z,34.5
2017-07-19T14:53:38.674Z,36.8
2017-07-19T14:54:46.174Z,34.5
2017-07-19T14:55:54.020Z,35
2017-07-19T14:57:01.520Z,33.5
2017-07-19T14:58:09.019Z,34.9
2017-07-19T14:59:16.516Z,34.1
2017-07-19T15:00:24.011Z,34.9
2017-07-19T15:01:31.858Z,34.3
2017-07-19T15:02:39.356Z,31.5
2017-07-19T15:03:46.848Z,32.8
2017-07-19T15:04:54.016Z,32.3
2017-07-19T15:06:01.506Z,33.6
2017-07-19T15:07:08.976Z,33.9
2017-07-19T15:08:16.482Z,33
2017-07-19T15:09:23.973Z,33.9
2017-07-19T15:10:31.474Z,32.9